createdAt,value
2023-04-02T00:02:26.267Z,16.03
2023-04-02T00:05:16.006Z,10.60
2023-04-02T00:07:44.590Z,12.30
2023-04-02T00:10:30.604Z,13.00
2023-04-02T00:13:01.791Z,10.87
2023-04-02T00:15:29.378Z,16.73
2023-04-02T00:17:57.209Z,11.90
2023-04-02T00:20:24.818Z,12.00
2023-04-02T00:22:51.928Z,10.60
2023-04-02T00:25:19.623Z,13.20
2023-04-02T00:27:46.749Z,11.50
2023-04-02T00:30:14.183Z,12.30
2023-04-02T00:32:41.373Z,10.40
2023-04-02T00:35:40.915Z,10.13
2023-04-02T00:38:08.098Z,10.20
2023-04-02T00:40:35.212Z,9.97
2023-04-02T00:43:04.244Z,11.10
2023-04-02T00:45:33.304Z,10.50
2023-04-02T00:48:13.479Z,11.13
2023-04-02T00:50:41.593Z,10.80
2023-04-02T00:53:11.950Z,14.60
2023-04-02T00:55:41.161Z,12.37
2023-04-02T00:58:17.973Z,11.60
2023-04-02T01:00:50.013Z,11.00
2023-04-02T01:03:17.245Z,12.03
2023-04-02T01:05:45.941Z,10.90
2023-04-02T01:08:20.753Z,11.60
2023-04-02T01:11:06.652Z,11.33
2023-04-02T01:13:40.353Z,12.90
2023-04-02T01:16:25.870Z,13.10
2023-04-02T01:18:53.051Z,15.80
2023-04-02T01:21:28.176Z,15.20
2023-04-02T01:23:56.014Z,12.13
2023-04-02T01:26:26.339Z,12.23
2023-04-02T01:29:02.317Z,11.47
2023-04-02T01:31:30.484Z,12.80
2023-04-02T01:33:57.541Z,14.47
2023-04-02T01:36:43.386Z,12.90
2023-04-02T01:39:29.386Z,14.40
2023-04-02T01:42:02.615Z,12.67
2023-04-02T01:44:31.594Z,13.30
2023-04-02T01:47:00.842Z,16.77
2023-04-02T01:49:27.935Z,14.13
2023-04-02T01:51:59.212Z,14.60
2023-04-02T01:54:28.776Z,13.50
2023-04-02T01:56:57.386Z,12.60
2023-04-02T01:59:24.622Z,12.90
2023-04-02T02:01:59.573Z,17.20
2023-04-02T02:04:26.714Z,14.10
2023-04-02T02:06:53.896Z,14.40
2023-04-02T02:09:25.940Z,14.63
2023-04-02T02:11:53.178Z,12.30
2023-04-02T02:14:22.272Z,17.03
2023-04-02T02:16:49.956Z,13.80
2023-04-02T02:19:21.829Z,14.27
2023-04-02T02:21:51.549Z,12.53
2023-04-02T02:24:26.011Z,15.13
2023-04-02T02:27:03.852Z,12.27
2023-04-02T02:29:32.172Z,12.90
2023-04-02T02:32:00.479Z,14.40
2023-04-02T02:34:32.195Z,13.83
2023-04-02T02:37:08.062Z,12.97
2023-04-02T02:39:38.871Z,16.30
2023-04-02T02:42:24.845Z,13.67
2023-04-02T02:44:52.858Z,12.63
2023-04-02T02:47:26.047Z,12.50
2023-04-02T02:49:54.378Z,13.20
2023-04-02T02:52:24.869Z,13.53
2023-04-02T02:54:53.617Z,12.73
2023-04-02T02:57:22.797Z,14.37
2023-04-02T02:59:51.697Z,14.77
2023-04-02T03:02:19.816Z,16.10
2023-04-02T03:04:47.798Z,15.40
2023-04-02T03:07:16.117Z,14.40
2023-04-02T03:09:49.028Z,15.77
2023-04-02T03:12:19.064Z,12.90
2023-04-02T03:14:49.461Z,14.03
2023-04-02T03:17:32.089Z,16.67
2023-04-02T03:20:02.219Z,15.70
2023-04-02T03:22:29.732Z,12.67
2023-04-02T03:25:00.221Z,14.30
2023-04-02T03:27:31.111Z,16.00
2023-04-02T03:30:14.780Z,12.87
2023-04-02T03:32:43.406Z,15.70
2023-04-02T03:35:18.871Z,14.67
2023-04-02T03:38:15.560Z,15.53
2023-04-02T03:40:44.527Z,17.20
2023-04-02T03:43:15.385Z,16.20
2023-04-02T03:45:44.788Z,12.30
2023-04-02T03:48:17.800Z,13.67
2023-04-02T03:50:50.250Z,15.57
2023-04-02T03:53:17.299Z,17.07
2023-04-02T03:55:44.595Z,16.30
2023-04-02T03:58:17.759Z,14.60
2023-04-02T04:00:50.309Z,15.80
2023-04-02T04:03:19.803Z,13.67
2023-04-02T04:05:49.859Z,15.43
2023-04-02T04:08:23.253Z,14.00
2023-04-02T04:10:54.514Z,13.20
2023-04-02T04:13:25.470Z,14.63
2023-04-02T04:15:55.169Z,13.67
2023-04-02T04:18:23.976Z,13.47
2023-04-02T04:20:56.958Z,13.60
2023-04-02T04:23:32.918Z,15.40
2023-04-02T04:26:05.519Z,13.20
2023-04-02T04:28:38.271Z,13.93
2023-04-02T04:31:25.970Z,14.83
2023-04-02T04:34:03.854Z,15.40
2023-04-02T04:36:33.643Z,13.80
2023-04-02T04:39:05.660Z,13.40
2023-04-02T04:41:35.022Z,15.37
2023-04-02T04:44:07.166Z,14.97
2023-04-02T04:46:34.175Z,15.43
2023-04-02T04:49:01.311Z,13.03
2023-04-02T04:51:40.022Z,13.60
2023-04-02T04:54:11.574Z,14.43
2023-04-02T04:56:41.260Z,19.93
2023-04-02T04:59:17.516Z,19.23
2023-04-02T05:01:51.147Z,15.60
2023-04-02T05:04:22.514Z,17.20
2023-04-02T05:06:54.898Z,13.13
2023-04-02T05:09:28.293Z,14.30
2023-04-02T05:12:15.878Z,12.47
2023-04-02T05:14:42.891Z,12.10
2023-04-02T05:17:20.257Z,11.83
2023-04-02T05:19:51.099Z,13.20
2023-04-02T05:22:38.889Z,12.43
2023-04-02T05:25:27.357Z,11.10
2023-04-02T05:28:17.657Z,9.90
2023-04-02T05:31:02.055Z,10.47
2023-04-02T05:33:30.283Z,10.47
2023-04-02T05:35:59.785Z,10.13
2023-04-02T05:38:28.345Z,9.60
2023-04-02T05:41:00.422Z,9.37
2023-04-02T05:43:28.704Z,9.57
2023-04-02T05:45:58.105Z,9.50
2023-04-02T05:48:43.949Z,9.83
2023-04-02T05:51:16.407Z,11.83
2023-04-02T05:53:49.561Z,9.67
2023-04-02T05:56:22.710Z,9.60
2023-04-02T05:58:59.204Z,9.83
2023-04-02T06:01:41.833Z,9.63
2023-04-02T06:04:38.276Z,9.80
2023-04-02T06:07:12.299Z,11.17
2023-04-02T06:09:57.208Z,9.10
2023-04-02T06:12:33.705Z,9.70
2023-04-02T06:15:01.008Z,9.43
2023-04-02T06:17:28.475Z,9.70
2023-04-02T06:19:57.610Z,10.67
2023-04-02T06:22:25.148Z,9.47
2023-04-02T06:25:00.657Z,8.33
2023-04-02T06:27:28.223Z,8.53
2023-04-02T06:29:57.800Z,8.50
2023-04-02T06:32:28.661Z,8.30
2023-04-02T06:34:56.092Z,8.17
2023-04-02T06:37:23.201Z,8.33
2023-04-02T06:39:50.446Z,8.50
2023-04-02T06:42:19.777Z,8.47
2023-04-02T06:44:47.036Z,8.23
2023-04-02T06:47:20.111Z,9.70
2023-04-02T06:49:57.415Z,8.07
2023-04-02T06:52:27.738Z,7.70
2023-04-02T06:54:54.964Z,7.60
2023-04-02T06:57:22.185Z,7.57
2023-04-02T06:59:49.363Z,7.53
2023-04-02T07:02:23.505Z,8.10
2023-04-02T07:04:50.731Z,7.77
2023-04-02T07:07:17.954Z,7.53
2023-04-02T07:09:45.051Z,7.87
2023-04-02T07:12:12.900Z,8.20
2023-04-02T07:14:40.273Z,7.43
2023-04-02T07:17:07.580Z,8.07
2023-04-02T07:19:34.836Z,7.63
2023-04-02T07:22:02.091Z,8.17
2023-04-02T07:24:29.133Z,7.90
2023-04-02T07:26:56.132Z,7.80
2023-04-02T07:29:23.259Z,7.80
2023-04-02T07:31:50.522Z,7.83
2023-04-02T07:34:17.610Z,9.05
2023-04-02T07:36:44.681Z,7.50
2023-04-02T07:39:12.260Z,7.73
2023-04-02T07:41:52.395Z,8.10
2023-04-02T07:44:19.444Z,7.90
2023-04-02T07:46:46.567Z,7.53
2023-04-02T07:49:13.952Z,7.67
2023-04-02T07:51:41.306Z,7.67
2023-04-02T07:54:10.202Z,7.80
2023-04-02T07:56:37.656Z,7.63
2023-04-02T07:59:05.237Z,7.70
2023-04-02T08:01:35.526Z,8.00
2023-04-02T08:04:04.025Z,7.70
2023-04-02T08:06:31.830Z,7.70
2023-04-02T08:08:59.524Z,8.57
2023-04-02T08:11:26.966Z,7.67
2023-04-02T08:13:54.104Z,7.90
2023-04-02T08:16:21.244Z,8.03
2023-04-02T08:18:48.299Z,8.30
2023-04-02T08:21:16.625Z,8.80
2023-04-02T08:23:43.943Z,7.80
2023-04-02T08:26:11.124Z,8.00
2023-04-02T08:28:38.126Z,7.93
2023-04-02T08:31:05.246Z,8.00
2023-04-02T08:33:32.429Z,8.30
2023-04-02T08:35:59.652Z,8.10
2023-04-02T08:38:26.825Z,8.30
2023-04-02T08:40:57.604Z,8.50
2023-04-02T08:43:40.665Z,8.90
2023-04-02T08:46:25.839Z,8.20
2023-04-02T08:48:59.934Z,8.10
2023-04-02T08:51:28.648Z,8.37
2023-04-02T08:53:56.870Z,8.30
2023-04-02T08:56:32.116Z,8.20
2023-04-02T08:59:02.732Z,8.30
2023-04-02T09:01:51.717Z,9.00
2023-04-02T09:04:20.588Z,8.50
2023-04-02T09:06:48.479Z,8.80
2023-04-02T09:09:16.403Z,8.90
2023-04-02T09:12:02.913Z,8.40
2023-04-02T09:14:35.940Z,10.80
2023-04-02T09:17:03.512Z,9.73
2023-04-02T09:19:41.645Z,10.73
2023-04-02T09:22:21.176Z,8.30
2023-04-02T09:24:55.799Z,8.60
2023-04-02T09:27:24.162Z,9.33
2023-04-02T09:29:55.990Z,8.80
2023-04-02T09:32:30.836Z,8.60
2023-04-02T09:35:18.343Z,8.30
2023-04-02T09:38:10.700Z,9.43
2023-04-02T09:40:56.758Z,8.27
2023-04-02T09:43:28.275Z,12.43
2023-04-02T09:45:56.438Z,9.30
2023-04-02T09:48:32.498Z,8.33
2023-04-02T09:51:21.294Z,8.20
2023-04-02T09:54:06.807Z,8.40
2023-04-02T09:56:36.705Z,8.30
2023-04-02T09:59:13.102Z,8.63
2023-04-02T10:01:50.375Z,10.53
2023-04-02T10:04:36.302Z,8.40
2023-04-02T10:07:04.386Z,9.27
2023-04-02T10:09:32.631Z,10.07
2023-04-02T10:12:00.884Z,8.60
2023-04-02T10:14:36.193Z,10.23
2023-04-02T10:17:12.476Z,9.80
2023-04-02T10:19:41.469Z,9.73
2023-04-02T10:22:19.661Z,11.87
2023-04-02T10:24:46.656Z,9.43
2023-04-02T10:27:22.350Z,9.60
2023-04-02T10:29:52.538Z,10.27
2023-04-02T10:32:22.291Z,9.37
2023-04-02T10:34:56.855Z,10.02
2023-04-02T10:37:23.853Z,11.60
2023-04-02T10:39:54.514Z,12.30
2023-04-02T10:42:47.848Z,9.97
2023-04-02T10:45:20.677Z,10.80
2023-04-02T10:47:57.319Z,9.30
2023-04-02T10:50:44.840Z,9.83
2023-04-02T10:53:15.391Z,13.17
2023-04-02T10:55:47.417Z,9.30
2023-04-02T10:58:28.071Z,9.43
2023-04-02T11:01:16.942Z,9.10
2023-04-02T11:03:45.935Z,8.93
2023-04-02T11:06:22.726Z,9.67
2023-04-02T11:08:51.456Z,9.80
2023-04-02T11:11:22.866Z,9.10
2023-04-02T11:13:53.293Z,9.40
2023-04-02T11:16:21.039Z,9.00
2023-04-02T11:19:06.774Z,8.57
2023-04-02T11:21:54.814Z,10.10
2023-04-02T11:24:32.482Z,10.20
2023-04-02T11:27:28.937Z,8.73
2023-04-02T11:30:15.735Z,8.90
2023-04-02T11:32:49.356Z,10.60
2023-04-02T11:35:26.338Z,8.70
2023-04-02T11:37:54.325Z,8.40
2023-04-02T11:40:42.236Z,11.37
2023-04-02T11:43:28.088Z,8.97
2023-04-02T11:45:57.366Z,8.93
2023-04-02T11:48:24.614Z,8.60
2023-04-02T11:50:51.744Z,8.93
2023-04-02T11:53:21.843Z,8.93
2023-04-02T11:55:55.035Z,8.30
2023-04-02T11:58:30.664Z,7.90
2023-04-02T12:01:14.664Z,8.30
2023-04-02T12:03:59.904Z,8.87
2023-04-02T12:06:39.648Z,8.50
2023-04-02T12:09:15.505Z,10.47
2023-04-02T12:11:43.366Z,8.90
2023-04-02T12:14:41.772Z,8.80
2023-04-02T12:17:25.370Z,9.07
2023-04-02T12:19:53.570Z,8.87
2023-04-02T12:22:22.677Z,8.37
2023-04-02T12:24:50.320Z,8.67
2023-04-02T12:27:22.583Z,10.10
2023-04-02T12:29:51.079Z,9.13
2023-04-02T12:32:24.610Z,8.57
2023-04-02T12:34:53.238Z,8.80
2023-04-02T12:37:22.900Z,8.70
2023-04-02T12:39:54.079Z,9.13
2023-04-02T12:42:28.795Z,8.50
2023-04-02T12:44:56.088Z,9.87
2023-04-02T12:47:23.271Z,8.50
2023-04-02T12:49:51.184Z,8.83
2023-04-02T12:52:23.226Z,9.60
2023-04-02T12:54:54.173Z,10.30
2023-04-02T12:57:27.264Z,9.03
2023-04-02T12:59:55.028Z,8.60
2023-04-02T13:02:26.939Z,8.27
2023-04-02T13:05:00.725Z,9.83
2023-04-02T13:07:31.509Z,8.10
2023-04-02T13:10:00.570Z,8.87
2023-04-02T13:12:35.655Z,8.90
2023-04-02T13:15:04.541Z,8.17
2023-04-02T13:17:40.982Z,8.00
2023-04-02T13:20:26.901Z,8.33
2023-04-02T13:22:54.034Z,8.37
2023-04-02T13:25:24.946Z,9.00
2023-04-02T13:27:53.692Z,8.97
2023-04-02T13:30:25.179Z,8.30
2023-04-02T13:32:52.296Z,10.33
2023-04-02T13:35:19.426Z,9.70
2023-04-02T13:37:46.568Z,8.40
2023-04-02T13:40:14.865Z,22.03
2023-04-02T13:42:43.465Z,8.23
2023-04-02T13:45:22.873Z,8.30
2023-04-02T13:47:49.983Z,10.30
2023-04-02T13:50:18.291Z,10.20
2023-04-02T13:52:46.615Z,8.10
2023-04-02T13:55:14.401Z,9.23
2023-04-02T13:57:41.523Z,8.60
2023-04-02T14:00:10.741Z,7.83
2023-04-02T14:02:43.465Z,8.30
2023-04-02T14:05:29.466Z,8.47
2023-04-02T14:08:15.212Z,9.23
2023-04-02T14:11:03.098Z,8.07
2023-04-02T14:13:51.876Z,8.60
2023-04-02T14:16:38.834Z,8.17
2023-04-02T14:19:22.288Z,8.37
2023-04-02T14:22:13.238Z,9.17
2023-04-02T14:25:29.285Z,8.53
2023-04-02T14:27:55.936Z,11.17
2023-04-02T14:30:32.922Z,8.90
2023-04-02T14:33:24.492Z,8.40
2023-04-02T14:35:59.181Z,9.90
2023-04-02T14:39:04.307Z,8.50
2023-04-02T14:41:49.312Z,8.40
2023-04-02T14:44:19.220Z,8.60
2023-04-02T14:46:46.782Z,9.07
2023-04-02T14:49:24.168Z,8.60
2023-04-02T14:52:02.647Z,8.23
2023-04-02T14:54:40.103Z,8.90
2023-04-02T14:57:18.740Z,11.47
2023-04-02T14:59:57.445Z,8.37
2023-04-02T15:02:47.252Z,8.73
2023-04-02T15:05:28.093Z,9.60
2023-04-02T15:08:09.608Z,9.17
2023-04-02T15:11:03.104Z,8.70
2023-04-02T15:13:38.259Z,9.20
2023-04-02T15:16:14.587Z,13.30
2023-04-02T15:18:41.416Z,9.23
2023-04-02T15:21:55.780Z,10.70
2023-04-02T15:24:58.200Z,8.70
2023-04-02T15:27:48.001Z,10.47
2023-04-02T15:30:25.475Z,9.40
2023-04-02T15:32:56.969Z,10.60
2023-04-02T15:35:23.797Z,9.27
2023-04-02T15:38:11.049Z,11.60
2023-04-02T15:40:53.009Z,9.87
2023-04-02T15:43:28.753Z,11.10
2023-04-02T15:46:07.883Z,9.03
2023-04-02T15:49:10.073Z,12.17
2023-04-02T15:52:01.323Z,9.13
2023-04-02T15:54:37.438Z,9.23
2023-04-02T15:57:21.041Z,10.00
2023-04-02T15:59:53.844Z,14.03
2023-04-02T16:03:02.685Z,9.97
2023-04-02T16:05:54.080Z,11.00
2023-04-02T16:08:58.565Z,8.57
2023-04-02T16:11:27.247Z,8.87
2023-04-02T16:14:15.336Z,9.53
2023-04-02T16:16:46.761Z,10.60
2023-04-02T16:19:34.112Z,9.83
2023-04-02T16:22:24.475Z,11.90
2023-04-02T16:25:02.059Z,10.60
2023-04-02T16:27:37.943Z,9.20
2023-04-02T16:30:23.492Z,9.63
2023-04-02T16:32:50.075Z,9.50
2023-04-02T16:35:41.800Z,16.10
2023-04-02T16:38:13.060Z,9.20
2023-04-02T16:41:07.840Z,9.82
2023-04-02T16:43:52.506Z,10.05
2023-04-02T16:46:46.946Z,11.18
2023-04-02T16:49:28.509Z,9.02
2023-04-02T16:52:08.276Z,10.33
2023-04-02T16:55:10.096Z,10.48
2023-04-02T16:58:01.787Z,8.93
2023-04-02T17:00:47.215Z,12.48
2023-04-02T17:03:19.978Z,9.18
2023-04-02T17:06:08.263Z,9.98
2023-04-02T17:08:43.835Z,10.20
2023-04-02T17:11:31.352Z,13.65
2023-04-02T17:14:06.218Z,9.15
2023-04-02T17:16:48.457Z,10.57
2023-04-02T17:19:16.897Z,9.57
2023-04-02T17:21:48.385Z,10.52
2023-04-02T17:24:33.364Z,9.93
2023-04-02T17:27:16.999Z,12.32
2023-04-02T17:29:47.833Z,10.70
2023-04-02T17:32:30.078Z,9.98
2023-04-02T17:34:57.643Z,9.27
2023-04-02T17:37:39.295Z,9.38
2023-04-02T17:40:38.809Z,9.85
2023-04-02T17:43:26.904Z,11.25
2023-04-02T17:45:59.929Z,9.32
2023-04-02T17:48:46.593Z,9.95
2023-04-02T17:51:40.984Z,9.50
2023-04-02T17:54:21.940Z,9.73
2023-04-02T17:57:10.666Z,9.45
2023-04-02T18:00:04.432Z,12.23
2023-04-02T18:02:39.569Z,10.35
2023-04-02T18:05:12.357Z,13.40
2023-04-02T18:07:48.642Z,9.68
2023-04-02T18:10:27.512Z,13.50
2023-04-02T18:13:13.077Z,14.40
2023-04-02T18:16:00.243Z,13.98
2023-04-02T18:18:49.494Z,17.90
2023-04-02T18:21:35.657Z,17.30
2023-04-02T18:24:20.609Z,12.77
2023-04-02T18:27:18.398Z,15.52
2023-04-02T18:29:48.107Z,16.10
2023-04-02T18:32:32.704Z,15.73
2023-04-02T18:35:11.077Z,15.25
2023-04-02T18:37:56.604Z,11.30
2023-04-02T18:40:41.756Z,12.38
2023-04-02T18:43:37.256Z,11.82
2023-04-02T18:46:26.759Z,10.55
2023-04-02T18:49:18.072Z,12.48
2023-04-02T18:51:46.182Z,9.30
2023-04-02T18:54:25.332Z,12.95
2023-04-02T18:56:52.069Z,9.80
2023-04-02T18:59:30.293Z,9.30
2023-04-02T19:02:00.468Z,12.18
2023-04-02T19:04:30.780Z,12.52
2023-04-02T19:07:04.973Z,9.70
2023-04-02T19:09:35.433Z,13.60
2023-04-02T19:12:07.172Z,11.05
2023-04-02T19:14:33.785Z,13.20
2023-04-02T19:17:22.019Z,10.95
2023-04-02T19:20:12.503Z,13.75
2023-04-02T19:23:22.540Z,13.38
2023-04-02T19:25:58.037Z,10.80
2023-04-02T19:28:39.724Z,10.77
2023-04-02T19:31:23.654Z,9.55
2023-04-02T19:33:56.060Z,10.88
2023-04-02T19:36:42.653Z,9.90
2023-04-02T19:39:53.423Z,12.68
2023-04-02T19:42:44.270Z,12.32
2023-04-02T19:45:40.338Z,9.82
2023-04-02T19:48:20.363Z,9.30
2023-04-02T19:50:49.110Z,9.65
2023-04-02T19:53:16.102Z,11.80
2023-04-02T19:55:43.107Z,12.88
2023-04-02T19:58:22.738Z,9.15
2023-04-02T20:00:56.285Z,9.82
2023-04-02T20:03:23.408Z,10.98
2023-04-02T20:05:50.677Z,9.98
2023-04-02T20:08:17.389Z,9.52
2023-04-02T20:10:44.235Z,9.13
2023-04-02T20:13:11.405Z,9.20
2023-04-02T20:15:39.702Z,8.80
2023-04-02T20:18:06.449Z,9.70
2023-04-02T20:20:34.504Z,10.98
2023-04-02T20:23:01.454Z,9.60
2023-04-02T20:25:32.188Z,9.57
2023-04-02T20:28:00.738Z,11.52
2023-04-02T20:30:27.443Z,10.35
2023-04-02T20:32:55.638Z,11.32
2023-04-02T20:35:22.399Z,9.18
2023-04-02T20:37:48.997Z,9.90
2023-04-02T20:40:15.677Z,10.80
2023-04-02T20:42:42.287Z,9.30
2023-04-02T20:45:09.587Z,8.57
2023-04-02T20:47:36.387Z,11.10
2023-04-02T20:50:03.159Z,8.70
2023-04-02T20:52:30.289Z,10.25
2023-04-02T20:54:57.387Z,10.02
2023-04-02T20:57:25.948Z,9.63
2023-04-02T20:59:52.931Z,12.10
2023-04-02T21:02:19.580Z,10.95
2023-04-02T21:04:46.270Z,11.27
2023-04-02T21:07:12.911Z,10.27
2023-04-02T21:09:39.739Z,8.85
2023-04-02T21:12:07.280Z,8.80
2023-04-02T21:14:38.107Z,10.98
2023-04-02T21:17:06.873Z,9.70
2023-04-02T21:19:34.574Z,9.48
2023-04-02T21:22:01.597Z,9.70
2023-04-02T21:24:28.229Z,9.98
2023-04-02T21:26:54.900Z,9.35
2023-04-02T21:29:21.582Z,9.30
2023-04-02T21:31:48.278Z,8.93
2023-04-02T21:34:16.771Z,10.07
2023-04-02T21:36:45.677Z,9.00
2023-04-02T21:39:23.729Z,9.85
2023-04-02T21:41:52.284Z,11.65
2023-04-02T21:44:21.631Z,11.27
2023-04-02T21:46:50.354Z,9.27
2023-04-02T21:49:21.838Z,8.88
2023-04-02T21:51:51.306Z,9.77
2023-04-02T21:54:18.083Z,13.48
2023-04-02T21:56:46.230Z,11.30
2023-04-02T21:59:14.543Z,13.98
2023-04-02T22:01:44.050Z,7.90
2023-04-02T22:04:16.621Z,11.25
2023-04-02T22:06:44.528Z,8.00
2023-04-02T22:09:20.364Z,8.20
2023-04-02T22:11:49.668Z,9.82
2023-04-02T22:14:17.479Z,10.70
2023-04-02T22:16:44.424Z,11.68
2023-04-02T22:19:14.191Z,8.55
2023-04-02T22:21:41.773Z,8.65
2023-04-02T22:24:12.300Z,8.38
2023-04-02T22:26:40.501Z,8.30
2023-04-02T22:29:07.577Z,8.02
2023-04-02T22:31:35.063Z,8.70
2023-04-02T22:34:03.834Z,7.80
2023-04-02T22:36:31.278Z,12.15
2023-04-02T22:38:59.043Z,9.88
2023-04-02T22:41:28.022Z,13.88
2023-04-02T22:43:59.779Z,8.25
2023-04-02T22:46:27.370Z,9.82
2023-04-02T22:48:54.551Z,9.20
2023-04-02T22:51:23.137Z,8.48
2023-04-02T22:53:52.605Z,8.32
2023-04-02T22:56:21.987Z,10.02
2023-04-02T22:58:49.625Z,9.15
2023-04-02T23:01:25.680Z,8.60
2023-04-02T23:03:55.901Z,26.77
2023-04-02T23:06:24.568Z,26.85
2023-04-02T23:08:53.471Z,22.13
2023-04-02T23:11:22.792Z,12.82
2023-04-02T23:13:50.787Z,12.25
2023-04-02T23:16:18.230Z,9.20
2023-04-02T23:18:47.821Z,8.25
2023-04-02T23:21:15.095Z,10.65
2023-04-02T23:23:42.218Z,9.18
2023-04-02T23:26:15.401Z,8.95
2023-04-02T23:28:42.379Z,9.00
2023-04-02T23:31:13.464Z,10.77
2023-04-02T23:33:40.353Z,10.65
2023-04-02T23:36:13.389Z,9.27
2023-04-02T23:38:40.250Z,8.88
2023-04-02T23:41:06.828Z,10.98
2023-04-02T23:43:33.412Z,11.43
2023-04-02T23:46:00.124Z,10.90
2023-04-02T23:48:26.737Z,11.38
2023-04-02T23:50:53.353Z,9.75
2023-04-02T23:53:20.013Z,14.05
2023-04-02T23:55:46.601Z,11.02
2023-04-02T23:58:13.168Z,8.85
